Granger, Iowa
Current Conditions -  °F | °C
As of 4:15 AM on Wednesday 26 Nov 2014 (Local Time) from KIKV Reporting Station
Light Snow Light Snow  
Wind Chill: 19°   Ceiling: 2300
Heat Index: 28°   Visibility: 2.5mi
Dew Point: 27°   Wind: 10mph
Humidity: 93%   Direction: 120°ESE
Pressure: 29.9"   Gusts: NA
Location:  41.76°N, 93.82°W
Report Text: KIKV 261015Z AUTO 12009KT 2 1/2SM -SN SCT003 SCT011 OVC023 M02/M03 A2990 RMK AO2
Loading
Personal Weather Stations






























Interactive Weather Map New forecast layout! Learn more

10-Day Weather Forecast

Advertisements
Track Severe Weather on mobile